createdAt,value
2018-09-03T00:01:04.405Z,3.77
2018-09-03T00:03:32.798Z,3.73
2018-09-03T00:06:01.189Z,3.40
2018-09-03T00:08:29.569Z,3.17
2018-09-03T00:10:58.000Z,3.00
2018-09-03T00:13:26.378Z,3.83
2018-09-03T00:15:54.729Z,3.73
2018-09-03T00:18:23.262Z,3.70
2018-09-03T00:20:51.617Z,3.63
2018-09-03T00:23:19.969Z,3.63
2018-09-03T00:25:48.561Z,3.60
2018-09-03T00:28:16.941Z,3.63
2018-09-03T00:30:45.363Z,4.13
2018-09-03T00:33:19.125Z,4.43
2018-09-03T00:35:52.837Z,3.43
2018-09-03T00:38:26.509Z,3.13
2018-09-03T00:41:00.066Z,3.87
2018-09-03T00:43:33.709Z,3.57
2018-09-03T00:46:07.480Z,3.30
2018-09-03T00:48:36.038Z,3.60
2018-09-03T00:51:04.428Z,4.53
2018-09-03T00:53:32.802Z,4.13
2018-09-03T00:56:01.228Z,4.30
2018-09-03T00:58:29.595Z,3.60
2018-09-03T01:00:57.977Z,5.10
2018-09-03T01:03:26.343Z,4.33
2018-09-03T01:05:54.693Z,4.03
2018-09-03T01:08:23.121Z,4.63
2018-09-03T01:10:51.478Z,4.60
2018-09-03T01:13:19.850Z,4.57
2018-09-03T01:15:48.236Z,4.30
2018-09-03T01:18:16.606Z,4.50
2018-09-03T01:20:45.027Z,4.60
2018-09-03T01:23:13.429Z,5.30
2018-09-03T01:25:41.817Z,5.03
2018-09-03T01:28:10.289Z,4.63
2018-09-03T01:30:38.654Z,4.70
2018-09-03T01:33:07.195Z,5.27
2018-09-03T01:35:35.649Z,4.70
2018-09-03T01:38:04.046Z,4.90
2018-09-03T01:40:32.459Z,5.40
2018-09-03T01:43:00.817Z,5.40
2018-09-03T01:45:29.187Z,5.40
2018-09-03T01:47:57.613Z,5.40
2018-09-03T01:50:25.985Z,6.00
2018-09-03T01:52:54.357Z,6.23
2018-09-03T01:55:22.897Z,5.90
2018-09-03T01:57:55.577Z,5.17
2018-09-03T02:00:24.082Z,5.60
2018-09-03T02:02:52.441Z,5.60
2018-09-03T02:05:20.775Z,5.73
2018-09-03T02:07:49.126Z,6.00
2018-09-03T02:10:17.433Z,5.57
2018-09-03T02:12:45.785Z,6.00
2018-09-03T02:15:14.354Z,6.10
2018-09-03T02:17:42.674Z,5.77
2018-09-03T02:20:11.006Z,5.87
2018-09-03T02:22:39.498Z,6.17
2018-09-03T02:25:07.918Z,6.10
2018-09-03T02:27:36.266Z,5.63
2018-09-03T02:30:04.809Z,6.43
2018-09-03T02:32:33.218Z,6.63
2018-09-03T02:35:01.764Z,5.80
2018-09-03T02:37:30.086Z,6.50
2018-09-03T02:39:58.421Z,6.23
2018-09-03T02:42:26.774Z,7.27
2018-09-03T02:44:55.095Z,6.53
2018-09-03T02:47:23.693Z,6.20
2018-09-03T02:49:52.099Z,6.23
2018-09-03T02:52:20.882Z,5.63
2018-09-03T02:54:49.295Z,6.00
2018-09-03T02:57:17.686Z,6.60
2018-09-03T02:59:46.114Z,5.57
2018-09-03T03:02:14.534Z,6.90
2018-09-03T03:04:42.936Z,6.77
2018-09-03T03:07:11.326Z,7.03
2018-09-03T03:09:39.895Z,7.13
2018-09-03T03:12:08.285Z,6.80
2018-09-03T03:14:36.704Z,7.00
2018-09-03T03:17:05.588Z,6.53
2018-09-03T03:19:34.119Z,5.93
2018-09-03T03:22:02.522Z,6.97
2018-09-03T03:24:30.963Z,6.93
2018-09-03T03:26:59.352Z,8.00
2018-09-03T03:29:27.777Z,7.10
2018-09-03T03:31:56.170Z,6.70
2018-09-03T03:34:24.566Z,7.03
2018-09-03T03:36:52.942Z,7.73
2018-09-03T03:39:21.496Z,8.53
2018-09-03T03:41:49.878Z,7.07
2018-09-03T03:44:18.273Z,7.90
2018-09-03T03:46:46.796Z,8.83
2018-09-03T03:49:15.149Z,8.20
2018-09-03T03:51:43.507Z,8.90
2018-09-03T03:54:11.878Z,8.77
2018-09-03T03:56:40.210Z,9.20
2018-09-03T03:59:08.708Z,9.00
2018-09-03T04:01:37.053Z,8.37
2018-09-03T04:04:05.516Z,8.57
2018-09-03T04:06:34.079Z,7.80
2018-09-03T04:09:02.454Z,8.77
2018-09-03T04:11:30.802Z,8.60
2018-09-03T04:13:59.159Z,9.00
2018-09-03T04:16:27.491Z,10.30
2018-09-03T04:18:55.842Z,8.53
2018-09-03T04:21:24.386Z,9.77
2018-09-03T04:23:52.717Z,9.30
2018-09-03T04:26:21.050Z,8.70
2018-09-03T04:28:49.628Z,9.00
2018-09-03T04:31:17.938Z,9.50
2018-09-03T04:33:46.262Z,8.83
2018-09-03T04:36:14.795Z,10.20
2018-09-03T04:38:43.235Z,9.50
2018-09-03T04:41:11.739Z,9.63
2018-09-03T04:43:41.061Z,9.60
2018-09-03T04:46:09.415Z,8.90
2018-09-03T04:48:37.814Z,9.37
2018-09-03T04:51:06.592Z,9.90
2018-09-03T04:53:34.990Z,9.57
2018-09-03T04:56:03.393Z,10.40
2018-09-03T04:58:31.744Z,10.60
2018-09-03T05:01:00.074Z,8.90
2018-09-03T05:03:28.418Z,9.83
2018-09-03T05:05:56.797Z,10.13
2018-09-03T05:08:25.144Z,11.60
2018-09-03T05:10:53.474Z,9.00
2018-09-03T05:13:21.850Z,10.10
2018-09-03T05:15:50.267Z,9.37
2018-09-03T05:18:18.815Z,10.10
2018-09-03T05:20:47.210Z,10.60
2018-09-03T05:23:15.638Z,10.60
2018-09-03T05:25:43.987Z,10.97
2018-09-03T05:28:12.327Z,11.03
2018-09-03T05:30:40.871Z,10.50
2018-09-03T05:33:09.262Z,10.50
2018-09-03T05:35:37.629Z,9.30
2018-09-03T05:38:06.606Z,9.67
2018-09-03T05:40:34.934Z,10.70
2018-09-03T05:43:03.295Z,10.77
2018-09-03T05:45:31.766Z,10.37
2018-09-03T05:48:00.173Z,11.80
2018-09-03T05:50:28.667Z,10.40
2018-09-03T05:52:57.001Z,10.03
2018-09-03T05:55:25.431Z,10.23
2018-09-03T05:57:53.946Z,10.60
2018-09-03T06:00:22.369Z,10.03
2018-09-03T06:02:50.743Z,11.97
2018-09-03T06:05:19.148Z,11.73
2018-09-03T06:07:47.610Z,11.63
2018-09-03T06:10:16.222Z,11.87
2018-09-03T06:12:44.716Z,11.50
2018-09-03T06:15:13.058Z,12.40
2018-09-03T06:17:41.668Z,11.67
2018-09-03T06:20:10.069Z,12.50
2018-09-03T06:22:38.523Z,12.10
2018-09-03T06:25:07.233Z,16.40
2018-09-03T06:27:35.622Z,19.20
2018-09-03T06:30:04.176Z,13.13
2018-09-03T06:32:32.810Z,13.27
2018-09-03T06:35:01.202Z,11.70
2018-09-03T06:37:29.590Z,11.60
2018-09-03T06:39:58.134Z,11.30
2018-09-03T06:42:26.588Z,11.90
2018-09-03T06:44:55.016Z,11.30
2018-09-03T06:47:23.466Z,11.63
2018-09-03T06:49:51.906Z,11.87
2018-09-03T06:52:20.290Z,11.13
2018-09-03T06:54:48.746Z,12.70
2018-09-03T06:57:17.182Z,11.90
2018-09-03T06:59:45.830Z,13.40
2018-09-03T07:02:14.927Z,12.90
2018-09-03T07:04:43.323Z,11.60
2018-09-03T07:07:11.811Z,14.00
2018-09-03T07:09:40.226Z,12.23
2018-09-03T07:12:08.888Z,14.10
2018-09-03T07:14:37.315Z,14.10
2018-09-03T07:17:05.751Z,13.83
2018-09-03T07:19:34.254Z,13.93
2018-09-03T07:22:02.651Z,13.63
2018-09-03T07:24:31.062Z,14.13
2018-09-03T07:26:59.480Z,13.67
2018-09-03T07:29:27.911Z,13.27
2018-09-03T07:31:56.391Z,12.80
2018-09-03T07:34:24.890Z,14.33
2018-09-03T07:36:53.461Z,13.17
2018-09-03T07:39:21.843Z,13.03
2018-09-03T07:41:50.227Z,13.13
2018-09-03T07:44:18.838Z,12.43
2018-09-03T07:46:47.238Z,12.63
2018-09-03T07:49:15.685Z,11.80
2018-09-03T07:51:44.098Z,11.60
2018-09-03T07:54:12.522Z,11.97
2018-09-03T07:56:40.994Z,12.37
2018-09-03T07:59:09.446Z,13.30
2018-09-03T08:01:37.898Z,11.80
2018-09-03T08:04:06.653Z,12.03
2018-09-03T08:06:35.058Z,11.93
2018-09-03T08:09:03.755Z,12.10
2018-09-03T08:11:32.325Z,12.17
2018-09-03T08:14:00.714Z,11.60
2018-09-03T08:16:29.114Z,11.47
2018-09-03T08:18:57.655Z,11.67
2018-09-03T08:21:26.078Z,11.80
2018-09-03T08:23:54.466Z,12.00
2018-09-03T08:26:23.030Z,11.40
2018-09-03T08:28:51.417Z,13.60
2018-09-03T08:31:19.797Z,12.33
2018-09-03T08:33:48.368Z,12.53
2018-09-03T08:36:16.766Z,12.00
2018-09-03T08:38:45.158Z,13.30
2018-09-03T08:41:13.711Z,11.70
2018-09-03T08:43:42.146Z,12.07
2018-09-03T08:46:10.534Z,11.67
2018-09-03T08:48:38.910Z,13.27
2018-09-03T08:51:07.274Z,12.57
2018-09-03T08:53:35.634Z,11.00
2018-09-03T08:56:04.012Z,11.10
2018-09-03T08:58:32.425Z,11.37
2018-09-03T09:01:00.759Z,11.37
2018-09-03T09:03:34.371Z,12.63
2018-09-03T09:06:02.740Z,10.00
2018-09-03T09:08:31.103Z,10.97
2018-09-03T09:10:59.446Z,12.20
2018-09-03T09:13:27.831Z,11.77
2018-09-03T09:15:56.176Z,10.37
2018-09-03T09:18:24.688Z,11.83
2018-09-03T09:20:53.027Z,11.23
2018-09-03T09:23:21.417Z,11.83
2018-09-03T09:25:49.974Z,11.23
2018-09-03T09:28:18.333Z,12.23
2018-09-03T09:30:46.705Z,11.67
2018-09-03T09:33:15.135Z,11.80
2018-09-03T09:35:43.481Z,11.77
2018-09-03T09:38:11.989Z,10.97
2018-09-03T09:40:40.327Z,11.03
2018-09-03T09:43:08.819Z,10.73
2018-09-03T09:45:37.135Z,11.00
2018-09-03T09:48:05.474Z,9.90
2018-09-03T09:50:33.927Z,11.00
2018-09-03T09:53:02.506Z,11.70
2018-09-03T09:55:30.916Z,10.87
2018-09-03T09:57:59.311Z,11.40
2018-09-03T10:00:33.117Z,11.47
2018-09-03T10:03:01.535Z,12.63
2018-09-03T10:05:30.094Z,12.00
2018-09-03T10:07:58.490Z,11.43
2018-09-03T10:10:26.898Z,12.17
2018-09-03T10:12:55.468Z,11.53
2018-09-03T10:15:23.861Z,11.77
2018-09-03T10:17:52.281Z,12.03
2018-09-03T10:20:20.690Z,13.17
2018-09-03T10:22:49.074Z,13.97
2018-09-03T10:25:17.465Z,14.03
2018-09-03T10:27:46.017Z,14.10
2018-09-03T10:30:14.402Z,12.60
2018-09-03T10:32:42.881Z,13.77
2018-09-03T10:35:11.306Z,13.10
2018-09-03T10:37:39.730Z,12.83
2018-09-03T10:40:08.519Z,13.80
2018-09-03T10:42:36.984Z,14.47
2018-09-03T10:45:05.432Z,14.37
2018-09-03T10:47:34.032Z,13.63
2018-09-03T10:50:02.405Z,13.30
2018-09-03T10:52:30.750Z,14.17
2018-09-03T10:54:59.092Z,13.93
2018-09-03T10:57:27.446Z,13.43
2018-09-03T10:59:55.820Z,11.90
2018-09-03T11:02:25.335Z,12.70
2018-09-03T11:04:53.682Z,12.60
2018-09-03T11:07:22.137Z,11.00
2018-09-03T11:09:50.495Z,11.27
2018-09-03T11:12:19.129Z,11.97
2018-09-03T11:14:47.541Z,11.43
2018-09-03T11:17:15.934Z,12.20
2018-09-03T11:19:48.618Z,10.87
2018-09-03T11:22:17.004Z,11.53
2018-09-03T11:24:45.593Z,10.83
2018-09-03T11:27:13.986Z,10.80
2018-09-03T11:29:42.396Z,11.03
2018-09-03T11:32:10.913Z,11.70
2018-09-03T11:34:39.298Z,13.70
2018-09-03T11:37:08.114Z,11.97
2018-09-03T11:39:36.547Z,12.60
2018-09-03T11:42:04.971Z,11.10
2018-09-03T11:44:33.352Z,10.67
2018-09-03T11:47:01.928Z,11.97
2018-09-03T11:49:30.331Z,11.90
2018-09-03T11:51:58.715Z,12.97
2018-09-03T11:54:27.352Z,10.60
2018-09-03T11:56:55.759Z,11.53
2018-09-03T11:59:24.170Z,12.87
2018-09-03T12:01:52.709Z,12.60
2018-09-03T12:04:21.134Z,11.10
2018-09-03T12:06:49.532Z,11.87
2018-09-03T12:09:17.944Z,12.00
2018-09-03T12:11:46.376Z,13.33
2018-09-03T12:14:24.482Z,12.90
2018-09-03T12:16:52.897Z,12.60
2018-09-03T12:19:21.269Z,16.90
2018-09-03T12:21:49.857Z,21.97
2018-09-03T12:24:18.266Z,13.80
2018-09-03T12:26:46.685Z,13.67
2018-09-03T12:29:15.083Z,14.43
2018-09-03T12:31:43.466Z,14.37
2018-09-03T12:34:11.881Z,14.53
2018-09-03T12:36:40.303Z,12.80
2018-09-03T12:39:09.862Z,12.43
2018-09-03T12:41:38.466Z,14.60
2018-09-03T12:44:06.926Z,14.07
2018-09-03T12:46:35.321Z,13.70
2018-09-03T12:49:03.807Z,12.03
2018-09-03T12:51:32.169Z,13.20
2018-09-03T12:54:00.705Z,14.90
2018-09-03T12:56:29.094Z,13.67
2018-09-03T12:58:57.460Z,14.47
2018-09-03T13:01:25.821Z,13.80
2018-09-03T13:03:54.151Z,13.93
2018-09-03T13:06:22.650Z,13.03
2018-09-03T13:08:51.062Z,14.40
2018-09-03T13:11:19.406Z,15.50
2018-09-03T13:13:47.807Z,14.37
2018-09-03T13:16:16.127Z,13.53
2018-09-03T13:18:44.530Z,14.10
2018-09-03T13:21:13.002Z,13.30
2018-09-03T13:23:41.371Z,12.97
2018-09-03T13:26:09.718Z,13.80
2018-09-03T13:28:38.103Z,13.00
2018-09-03T13:31:06.460Z,12.67
2018-09-03T13:33:35.023Z,12.13
2018-09-03T13:36:03.378Z,12.20
2018-09-03T13:38:31.697Z,11.93
2018-09-03T13:41:00.291Z,11.63
2018-09-03T13:43:28.697Z,12.53
2018-09-03T13:45:57.046Z,11.30
2018-09-03T13:48:25.581Z,11.70
2018-09-03T13:50:54.001Z,10.80
2018-09-03T13:53:22.410Z,12.20
2018-09-03T13:55:50.967Z,11.27
2018-09-03T13:58:19.343Z,11.77
2018-09-03T14:00:47.790Z,12.83
2018-09-03T14:03:16.351Z,11.10
2018-09-03T14:05:44.767Z,9.60
2018-09-03T14:08:13.204Z,9.70
2018-09-03T14:10:41.791Z,11.30
2018-09-03T14:13:10.236Z,11.03
2018-09-03T14:15:38.662Z,13.60
2018-09-03T14:18:07.335Z,12.33
2018-09-03T14:20:35.790Z,28.03
2018-09-03T14:23:04.527Z,14.10
2018-09-03T14:25:33.054Z,11.13
2018-09-03T14:28:01.448Z,11.63
2018-09-03T14:30:30.218Z,12.10
2018-09-03T14:32:58.763Z,11.00
2018-09-03T14:35:27.205Z,11.00
2018-09-03T14:37:55.594Z,12.00
2018-09-03T14:40:23.980Z,11.43
2018-09-03T14:42:52.617Z,12.13
2018-09-03T14:45:21.001Z,11.33
2018-09-03T14:47:49.423Z,13.53
2018-09-03T14:50:18.015Z,11.70
2018-09-03T14:52:46.447Z,13.27
2018-09-03T14:55:14.873Z,11.90
2018-09-03T14:57:43.478Z,12.30
2018-09-03T15:00:11.886Z,13.17
2018-09-03T15:02:40.324Z,24.47
2018-09-03T15:05:08.887Z,12.87
2018-09-03T15:07:37.269Z,11.87
2018-09-03T15:10:06.007Z,12.03
2018-09-03T15:12:34.438Z,11.87
2018-09-03T15:15:02.880Z,10.40
2018-09-03T15:17:31.313Z,9.90
2018-09-03T15:19:59.719Z,11.13
2018-09-03T15:22:28.119Z,10.67
2018-09-03T15:24:56.699Z,10.67
2018-09-03T15:27:25.118Z,9.40
2018-09-03T15:29:53.509Z,11.00
2018-09-03T15:32:21.979Z,10.50
2018-09-03T15:34:50.394Z,11.00
2018-09-03T15:37:18.797Z,10.60
2018-09-03T15:39:47.359Z,10.97
2018-09-03T15:42:15.760Z,10.73
2018-09-03T15:44:44.173Z,11.80
2018-09-03T15:47:12.753Z,12.10
2018-09-03T15:49:41.131Z,11.23
2018-09-03T15:52:09.518Z,13.20
2018-09-03T15:54:38.081Z,11.67
2018-09-03T15:57:06.569Z,11.27
2018-09-03T15:59:34.966Z,12.47
2018-09-03T16:02:03.537Z,11.77
2018-09-03T16:04:31.961Z,11.57
2018-09-03T16:07:00.377Z,11.77
2018-09-03T16:09:28.971Z,12.23
2018-09-03T16:11:57.362Z,11.33
2018-09-03T16:14:25.786Z,12.90
2018-09-03T16:16:54.402Z,11.43
2018-09-03T16:19:22.780Z,11.20
2018-09-03T16:21:51.237Z,11.10
2018-09-03T16:24:19.831Z,11.27
2018-09-03T16:26:48.309Z,10.90
2018-09-03T16:29:16.702Z,12.30
2018-09-03T16:31:45.209Z,11.80
2018-09-03T16:34:13.594Z,11.30
2018-09-03T16:36:42.174Z,12.43
2018-09-03T16:39:10.558Z,12.27
2018-09-03T16:41:38.995Z,11.97
2018-09-03T16:44:07.543Z,12.80
2018-09-03T16:46:35.966Z,11.60
2018-09-03T16:49:04.475Z,12.30
2018-09-03T16:51:32.813Z,11.63
2018-09-03T16:54:01.210Z,17.87
2018-09-03T16:56:29.677Z,16.53
2018-09-03T16:58:58.062Z,12.20
2018-09-03T17:01:26.711Z,10.97
2018-09-03T17:03:54.946Z,11.90
2018-09-03T17:06:23.302Z,11.87
2018-09-03T17:08:51.869Z,11.40
2018-09-03T17:11:20.246Z,11.97
2018-09-03T17:13:48.592Z,12.57
2018-09-03T17:16:17.206Z,13.33
2018-09-03T17:18:45.573Z,11.13
2018-09-03T17:21:13.954Z,21.50
2018-09-03T17:23:42.578Z,15.17
2018-09-03T17:26:10.919Z,12.80
2018-09-03T17:28:39.320Z,12.13
2018-09-03T17:31:07.864Z,12.30
2018-09-03T17:33:36.205Z,12.10
2018-09-03T17:36:04.546Z,12.07
2018-09-03T17:38:33.079Z,11.67
2018-09-03T17:41:01.429Z,13.17
2018-09-03T17:43:29.770Z,12.40
2018-09-03T17:45:58.150Z,12.20
2018-09-03T17:48:26.507Z,12.53
2018-09-03T17:50:55.057Z,11.43
2018-09-03T17:53:23.382Z,12.03
2018-09-03T17:55:51.719Z,12.57
2018-09-03T17:58:20.218Z,10.07
2018-09-03T18:00:48.662Z,10.50
2018-09-03T18:03:17.090Z,10.40
2018-09-03T18:05:45.534Z,10.77
2018-09-03T18:08:13.989Z,10.37
2018-09-03T18:10:42.368Z,10.80
2018-09-03T18:13:10.961Z,9.73
2018-09-03T18:15:39.372Z,10.63
2018-09-03T18:18:07.763Z,14.27
2018-09-03T18:20:36.169Z,25.33
2018-09-03T18:23:04.553Z,18.17
2018-09-03T18:25:32.975Z,15.20
2018-09-03T18:28:01.415Z,10.70
2018-09-03T18:30:29.850Z,10.93
2018-09-03T18:32:58.246Z,10.73
2018-09-03T18:35:26.794Z,11.03
2018-09-03T18:37:55.320Z,10.37
2018-09-03T18:40:23.798Z,11.27
2018-09-03T18:42:52.263Z,11.50
2018-09-03T18:45:20.654Z,10.90
2018-09-03T18:47:49.078Z,10.20
2018-09-03T18:50:17.650Z,10.53
2018-09-03T18:52:46.054Z,11.00
2018-09-03T18:55:14.430Z,8.83
2018-09-03T18:57:42.999Z,10.80
2018-09-03T19:00:11.522Z,10.17
2018-09-03T19:02:39.834Z,10.20
2018-09-03T19:05:08.330Z,10.10
2018-09-03T19:07:36.734Z,10.10
2018-09-03T19:10:05.143Z,10.90
2018-09-03T19:12:33.500Z,11.80
2018-09-03T19:15:01.824Z,10.53
2018-09-03T19:17:30.154Z,10.17
2018-09-03T19:19:58.570Z,10.37
2018-09-03T19:22:26.902Z,11.33
2018-09-03T19:24:55.449Z,11.20
2018-09-03T19:27:23.882Z,10.17
2018-09-03T19:29:52.415Z,9.70
2018-09-03T19:32:20.794Z,10.40
2018-09-03T19:34:49.170Z,10.83
2018-09-03T19:37:17.662Z,10.77
2018-09-03T19:39:45.986Z,10.60
2018-09-03T19:42:14.330Z,20.00
2018-09-03T19:44:42.842Z,17.83
2018-09-03T19:47:11.899Z,13.97
2018-09-03T19:49:40.242Z,11.40
2018-09-03T19:52:08.904Z,10.47
2018-09-03T19:54:37.227Z,11.60
2018-09-03T19:57:05.603Z,11.40
2018-09-03T19:59:34.215Z,11.37
2018-09-03T20:02:02.714Z,10.93
2018-09-03T20:04:31.097Z,11.10
2018-09-03T20:06:59.681Z,11.90
2018-09-03T20:09:28.095Z,10.40
2018-09-03T20:11:56.535Z,10.50
2018-09-03T20:14:25.133Z,10.80
2018-09-03T20:16:53.511Z,12.37
2018-09-03T20:19:21.907Z,11.77
2018-09-03T20:21:50.474Z,11.40
2018-09-03T20:24:18.982Z,11.90
2018-09-03T20:26:47.547Z,11.27
2018-09-03T20:29:15.957Z,12.97
2018-09-03T20:31:44.381Z,11.83
2018-09-03T20:34:12.830Z,11.20
2018-09-03T20:36:41.250Z,11.03
2018-09-03T20:39:09.721Z,11.00
2018-09-03T20:41:38.147Z,11.43
2018-09-03T20:44:06.573Z,10.50
2018-09-03T20:46:35.204Z,16.50
2018-09-03T20:49:03.498Z,27.00
2018-09-03T20:51:31.896Z,13.43
2018-09-03T20:54:00.490Z,11.70
2018-09-03T20:56:28.931Z,13.03
2018-09-03T20:58:57.323Z,15.03
2018-09-03T21:01:25.833Z,12.97
2018-09-03T21:03:54.214Z,11.97
2018-09-03T21:06:22.574Z,12.83
2018-09-03T21:08:51.001Z,12.20
2018-09-03T21:11:19.379Z,12.43
2018-09-03T21:13:47.787Z,43.80
2018-09-03T21:16:16.207Z,35.30
2018-09-03T21:18:44.794Z,17.30
2018-09-03T21:21:13.190Z,15.50
2018-09-03T21:23:41.593Z,13.87
2018-09-03T21:26:10.001Z,12.73
2018-09-03T21:28:38.436Z,12.47
2018-09-03T21:31:06.827Z,11.90
2018-09-03T21:33:35.236Z,13.23
2018-09-03T21:36:03.681Z,12.47
2018-09-03T21:38:32.946Z,10.37
2018-09-03T21:41:01.336Z,12.03
2018-09-03T21:43:29.722Z,12.60
2018-09-03T21:45:58.157Z,12.03
2018-09-03T21:48:26.549Z,11.40
2018-09-03T21:50:54.945Z,11.70
2018-09-03T21:53:23.266Z,10.43
2018-09-03T21:55:51.622Z,11.83
2018-09-03T21:58:19.974Z,10.27
2018-09-03T22:00:48.298Z,11.03
2018-09-03T22:03:16.833Z,12.33
2018-09-03T22:05:45.157Z,11.10
2018-09-03T22:08:13.535Z,12.60
2018-09-03T22:10:42.106Z,11.40
2018-09-03T22:13:10.458Z,12.40
2018-09-03T22:15:39.901Z,11.40
2018-09-03T22:18:09.195Z,12.60
2018-09-03T22:20:37.922Z,14.97
2018-09-03T22:23:06.370Z,16.10
2018-09-03T22:25:35.954Z,19.23
2018-09-03T22:28:04.385Z,18.40
2018-09-03T22:30:32.827Z,17.80
2018-09-03T22:33:01.331Z,18.97
2018-09-03T22:35:29.749Z,18.33
2018-09-03T22:37:58.113Z,79.03
2018-09-03T22:40:26.664Z,48.33
2018-09-03T22:42:55.101Z,30.67
2018-09-03T22:45:23.452Z,21.23
2018-09-03T22:47:52.042Z,21.30
2018-09-03T22:50:20.442Z,21.60
2018-09-03T22:52:48.795Z,21.97
2018-09-03T22:55:17.290Z,21.93
2018-09-03T22:57:45.625Z,22.27
2018-09-03T23:00:13.985Z,23.33
2018-09-03T23:02:46.000Z,24.93
2018-09-03T23:05:14.410Z,23.27
2018-09-03T23:07:42.778Z,25.10
2018-09-03T23:10:11.269Z,24.47
2018-09-03T23:12:39.778Z,24.87
2018-09-03T23:15:08.590Z,24.73
2018-09-03T23:17:36.923Z,26.87
2018-09-03T23:20:05.449Z,28.43
2018-09-03T23:22:33.798Z,26.03
2018-09-03T23:25:02.168Z,27.63
2018-09-03T23:27:30.530Z,27.83
2018-09-03T23:29:58.920Z,27.93
2018-09-03T23:32:27.284Z,27.17
2018-09-03T23:34:55.838Z,28.83
2018-09-03T23:37:24.174Z,26.87
2018-09-03T23:39:52.640Z,29.73
2018-09-03T23:42:21.231Z,28.43
2018-09-03T23:44:49.609Z,28.43
2018-09-03T23:47:17.948Z,24.97
2018-09-03T23:49:46.310Z,25.07
2018-09-03T23:52:14.668Z,24.70
2018-09-03T23:54:42.997Z,24.50
2018-09-03T23:57:11.409Z,26.17
2018-09-03T23:59:39.955Z,25.37
